Time;durP1;ratioP1;P1;durP2;ratioP2;P2;SDS_P1;SDS_P2;PMS_P1;PMS_P2;Temp;Humidity;BMP_temperature;BMP_pressure;BME280_temperature;BME280_humidity;BME280_pressure;Samples;Min_cycle;Max_cycle;Signal;HPM_P1;HPM_P2
2022/06/29 00:00:50;;;;;;;32.28;18.80;;;17.50;99.90;;;;;;5033538;28;20068;-52
2022/06/29 00:03:16;;;;;;;30.45;15.90;;;17.50;99.90;;;;;;5033347;28;20029;-55
2022/06/29 00:05:42;;;;;;;31.98;16.95;;;17.50;99.90;;;;;;5033710;28;20463;-51
2022/06/29 00:08:07;;;;;;;29.65;16.25;;;17.40;99.90;;;;;;5033265;28;20053;-53
2022/06/29 00:10:34;;;;;;;34.35;15.32;;;17.30;99.90;;;;;;5033282;28;20033;-53
2022/06/29 00:13:00;;;;;;;29.10;15.80;;;17.30;99.90;;;;;;5033690;28;20484;-53
2022/06/29 00:15:26;;;;;;;33.53;16.60;;;17.30;99.90;;;;;;5032620;28;20128;-53
2022/06/29 00:17:52;;;;;;;23.00;15.25;;;17.30;99.90;;;;;;5033269;28;20488;-55
2022/06/29 00:20:17;;;;;;;23.98;15.05;;;17.20;99.90;;;;;;5032960;28;20464;-52
2022/06/29 00:22:45;;;;;;;24.58;15.95;;;17.30;99.90;;;;;;5033080;28;20532;-51
2022/06/29 00:25:12;;;;;;;22.85;15.10;;;17.30;99.90;;;;;;5033158;28;20021;-57
2022/06/29 00:27:38;;;;;;;26.83;15.27;;;17.20;99.90;;;;;;5033241;28;20443;-54
2022/06/29 00:30:05;;;;;;;23.80;14.13;;;17.20;99.90;;;;;;5033127;28;20048;-56
2022/06/29 00:32:31;;;;;;;23.65;13.90;;;17.20;99.90;;;;;;5032679;28;20022;-55
2022/06/29 00:34:58;;;;;;;30.95;13.90;;;17.20;99.90;;;;;;5033216;28;20124;-55
2022/06/29 00:37:24;;;;;;;19.35;14.05;;;17.10;99.90;;;;;;5014977;28;20470;-51
2022/06/29 00:39:49;;;;;;;24.13;14.50;;;17.20;99.90;;;;;;5033205;28;20093;-55
2022/06/29 00:42:15;;;;;;;18.50;12.55;;;17.20;99.90;;;;;;5032730;28;20034;-55
2022/06/29 00:44:41;;;;;;;27.45;12.68;;;17.10;99.90;;;;;;5032657;28;20029;-56
2022/06/29 00:47:06;;;;;;;20.05;12.68;;;17.20;99.90;;;;;;5032888;28;20033;-52
2022/06/29 00:49:34;;;;;;;19.95;13.77;;;17.20;99.90;;;;;;5032116;28;20036;-54
2022/06/29 00:52:14;;;;;;;31.05;12.35;;;17.20;99.90;;;;;;5032711;28;20133;-58
2022/06/29 00:54:45;;;;;;;15.98;11.88;;;17.20;99.90;;;;;;5032808;28;20026;-52
2022/06/29 00:57:17;;;;;;;21.25;12.07;;;17.30;99.90;;;;;;5032671;28;20022;-55
2022/06/29 00:59:48;;;;;;;23.83;12.65;;;17.30;99.90;;;;;;5032477;28;20404;-56
2022/06/29 01:02:18;;;;;;;22.42;10.65;;;17.20;99.90;;;;;;5032036;28;20025;-56
2022/06/29 01:04:44;;;;;;;21.55;11.07;;;17.30;99.90;;;;;;5032696;28;20032;-55
2022/06/29 01:07:17;;;;;;;25.15;11.50;;;17.30;99.90;;;;;;5032704;28;20029;-55
2022/06/29 01:09:43;;;;;;;22.63;13.03;;;17.30;99.90;;;;;;5014474;28;20071;-55
2022/06/29 01:12:10;;;;;;;18.55;12.25;;;17.30;99.90;;;;;;5032050;28;20034;-55
2022/06/29 01:14:36;;;;;;;18.08;12.90;;;17.40;99.90;;;;;;5032106;28;20044;-54
2022/06/29 01:17:02;;;;;;;18.67;11.32;;;17.40;99.90;;;;;;5031612;28;20369;-52
2022/06/29 01:19:27;;;;;;;18.15;11.93;;;17.30;99.90;;;;;;5032022;28;20043;-54
2022/06/29 01:21:55;;;;;;;18.42;12.45;;;17.30;99.90;;;;;;5032603;28;20037;-53
2022/06/29 01:24:22;;;;;;;20.75;11.23;;;17.30;99.90;;;;;;5031824;28;20057;-53
2022/06/29 01:26:48;;;;;;;17.80;9.57;;;17.30;99.90;;;;;;5032207;28;20392;-52
2022/06/29 01:29:16;;;;;;;31.75;10.30;;;17.40;99.90;;;;;;5031809;28;20029;-54
2022/06/29 01:31:42;;;;;;;33.28;10.68;;;17.40;99.90;;;;;;5014300;28;20042;-52
2022/06/29 01:34:08;;;;;;;16.45;9.40;;;17.40;99.90;;;;;;5031693;28;20072;-53
2022/06/29 01:36:34;;;;;;;20.70;10.20;;;17.40;99.90;;;;;;5032662;28;20053;-53
2022/06/29 01:39:00;;;;;;;13.82;8.27;;;17.40;99.90;;;;;;5032074;28;20507;-52
2022/06/29 01:41:25;;;;;;;18.25;9.15;;;17.50;99.90;;;;;;5031442;28;20637;-50
2022/06/29 01:43:52;;;;;;;14.20;8.55;;;17.60;99.90;;;;;;5031950;28;20061;-55
2022/06/29 01:46:18;;;;;;;15.63;9.00;;;17.60;99.90;;;;;;5031481;28;20439;-51
2022/06/29 01:48:43;;;;;;;20.30;10.10;;;17.60;99.90;;;;;;5031233;28;20021;-55
2022/06/29 01:51:09;;;;;;;19.40;10.77;;;17.60;99.90;;;;;;5031448;28;20075;-51
2022/06/29 01:53:34;;;;;;;20.55;11.70;;;17.60;99.90;;;;;;5031461;28;20057;-54
2022/06/29 01:56:00;;;;;;;20.73;12.63;;;17.70;99.90;;;;;;5031535;28;20040;-55
2022/06/29 01:58:26;;;;;;;26.13;13.50;;;17.60;99.90;;;;;;5031178;28;20491;-54
2022/06/29 02:00:51;;;;;;;29.58;13.82;;;17.60;99.90;;;;;;5030791;28;20030;-57
2022/06/29 02:03:17;;;;;;;32.78;13.95;;;17.70;99.90;;;;;;5030789;28;20569;-54
2022/06/29 02:05:43;;;;;;;30.02;13.60;;;17.60;99.90;;;;;;5030399;28;20029;-55
2022/06/29 02:08:08;;;;;;;17.98;13.32;;;17.60;99.90;;;;;;5030406;28;20047;-54
2022/06/29 02:10:34;;;;;;;21.90;13.85;;;17.60;99.90;;;;;;5030199;28;20033;-56
2022/06/29 02:13:00;;;;;;;39.67;16.52;;;17.60;99.90;;;;;;5031150;28;20029;-53
2022/06/29 02:15:26;;;;;;;37.90;16.42;;;17.60;99.90;;;;;;5029838;28;20515;-50
2022/06/29 02:17:52;;;;;;;24.88;16.17;;;17.60;99.90;;;;;;5029858;28;20037;-54
2022/06/29 02:20:18;;;;;;;27.20;16.95;;;17.60;99.90;;;;;;5029843;28;20037;-54
2022/06/29 02:22:43;;;;;;;22.60;14.40;;;17.70;99.90;;;;;;5030579;28;20034;-55
2022/06/29 02:25:10;;;;;;;26.50;15.15;;;17.80;99.90;;;;;;5030382;28;20037;-53
2022/06/29 02:27:44;;;;;;;31.23;18.83;;;17.80;99.90;;;;;;5030423;28;20089;-56
2022/06/29 02:30:14;;;;;;;29.77;18.77;;;17.70;99.90;;;;;;5030626;28;20029;-54
2022/06/29 02:35:25;;;;;;;39.55;22.15;;;17.70;99.90;;;;;;5014118;28;20092;-56
2022/06/29 02:37:51;;;;;;;39.58;23.30;;;17.80;99.90;;;;;;5031938;28;20014;-54
2022/06/29 02:40:16;;;;;;;46.20;24.85;;;17.80;99.90;;;;;;5030682;28;20108;-56
2022/06/29 02:42:42;;;;;;;36.20;24.90;;;17.80;99.90;;;;;;5031203;28;20517;-53
2022/06/29 02:45:09;;;;;;;33.13;23.25;;;17.70;99.90;;;;;;5030858;28;20068;-54
2022/06/29 02:47:35;;;;;;;31.58;23.60;;;17.80;99.90;;;;;;5030516;28;20071;-55
2022/06/29 02:50:01;;;;;;;46.75;26.17;;;17.70;99.90;;;;;;5030842;28;20026;-55
2022/06/29 02:52:26;;;;;;;30.95;22.95;;;17.80;99.90;;;;;;5030507;28;20025;-51
2022/06/29 02:54:52;;;;;;;33.33;21.92;;;17.70;99.90;;;;;;5030734;28;20412;-52
2022/06/29 02:57:20;;;;;;;31.88;22.08;;;17.80;99.90;;;;;;5030747;28;20021;-54
2022/06/29 02:59:46;;;;;;;39.05;23.25;;;17.80;99.90;;;;;;5030508;28;20022;-55
2022/06/29 03:02:11;;;;;;;37.50;23.40;;;17.80;99.90;;;;;;5030518;28;20040;-53
2022/06/29 03:04:37;;;;;;;32.67;23.25;;;17.80;99.90;;;;;;5030745;28;20029;-54
2022/06/29 03:07:03;;;;;;;40.55;24.00;;;17.80;99.90;;;;;;5030280;28;20107;-57
2022/06/29 03:09:28;;;;;;;39.95;22.40;;;17.80;99.90;;;;;;5030659;28;20068;-53
2022/06/29 03:11:57;;;;;;;36.65;22.80;;;17.80;99.90;;;;;;5032238;28;20220;-53
2022/06/29 03:14:23;;;;;;;28.50;20.65;;;17.80;99.90;;;;;;5034141;28;20041;-56
2022/06/29 03:16:48;;;;;;;31.25;20.83;;;17.80;99.90;;;;;;5033813;28;20048;-55
2022/06/29 03:19:14;;;;;;;41.72;23.00;;;17.80;99.90;;;;;;5034862;28;20484;-55
2022/06/29 03:21:39;;;;;;;40.17;24.40;;;17.70;99.90;;;;;;5034544;28;20087;-53
2022/06/29 03:24:05;;;;;;;37.40;21.98;;;17.70;99.90;;;;;;5034262;28;20113;-54
2022/06/29 03:26:31;;;;;;;37.70;24.23;;;17.60;99.90;;;;;;5034115;28;20029;-52
2022/06/29 03:28:57;;;;;;;36.15;22.58;;;17.60;99.90;;;;;;5016512;28;20036;-55
2022/06/29 03:31:38;;;;;;;35.85;22.52;;;17.60;99.90;;;;;;5034235;28;20029;-55
2022/06/29 03:34:03;;;;;;;36.55;23.27;;;17.60;99.90;;;;;;5034147;28;20029;-51
2022/06/29 03:36:30;;;;;;;37.53;20.88;;;17.60;99.90;;;;;;5034184;28;20044;-55
2022/06/29 03:38:55;;;;;;;30.95;20.45;;;17.60;99.90;;;;;;5034552;28;20029;-55
2022/06/29 03:41:21;;;;;;;29.30;21.73;;;17.60;99.90;;;;;;5034159;28;20087;-54
2022/06/29 03:43:47;;;;;;;32.30;20.70;;;17.60;99.90;;;;;;5034242;28;20017;-53
2022/06/29 03:46:12;;;;;;;30.15;20.92;;;17.60;99.90;;;;;;5034105;28;20037;-54
2022/06/29 03:48:38;;;;;;;37.30;20.23;;;17.60;99.90;;;;;;5033724;28;20057;-51
2022/06/29 03:51:04;;;;;;;28.85;20.85;;;17.50;99.90;;;;;;5033835;28;20044;-53
2022/06/29 03:53:29;;;;;;;32.63;18.67;;;17.50;99.90;;;;;;5033676;28;20067;-55
2022/06/29 03:55:56;;;;;;;26.70;18.60;;;17.50;99.90;;;;;;5033884;28;20369;-55
2022/06/29 03:58:22;;;;;;;28.23;19.77;;;17.60;99.90;;;;;;5033397;28;20038;-55
2022/06/29 04:00:47;;;;;;;21.92;16.63;;;17.60;99.90;;;;;;5033666;28;20034;-55
2022/06/29 04:03:13;;;;;;;27.45;17.48;;;17.60;99.90;;;;;;5033630;28;20032;-54
2022/06/29 04:05:39;;;;;;;21.30;14.60;;;17.70;99.90;;;;;;5015746;28;20029;-53
2022/06/29 04:08:05;;;;;;;23.05;15.55;;;17.60;99.90;;;;;;5033534;28;20029;-55
2022/06/29 04:10:31;;;;;;;18.52;15.52;;;17.60;99.90;;;;;;5033043;28;20044;-52
2022/06/29 04:12:56;;;;;;;24.85;19.27;;;17.60;99.90;;;;;;5033565;28;20025;-54
2022/06/29 04:15:22;;;;;;;30.65;19.25;;;17.60;99.90;;;;;;5033164;28;20586;-54
2022/06/29 04:17:48;;;;;;;34.97;19.33;;;17.50;99.90;;;;;;5033694;28;20026;-52
2022/06/29 04:21:05;;;;;;;24.95;18.95;;;17.60;99.90;;;;;;5032936;28;20029;-54
2022/06/29 04:23:02;;;;;;;20.65;17.00;;;17.60;99.90;;;;;;5032661;28;20038;-57
2022/06/29 04:25:28;;;;;;;24.10;17.95;;;17.60;99.90;;;;;;5033058;28;20025;-56
2022/06/29 04:27:55;;;;;;;26.00;19.38;;;17.60;99.90;;;;;;5033243;28;20032;-56
2022/06/29 04:30:20;;;;;;;27.35;18.98;;;17.60;99.90;;;;;;5031645;28;20116;-52
2022/06/29 04:32:46;;;;;;;22.40;16.98;;;17.60;99.90;;;;;;5032994;28;20109;-55
2022/06/29 04:35:12;;;;;;;25.77;16.73;;;17.60;99.90;;;;;;5033257;28;20040;-55
2022/06/29 04:37:37;;;;;;;20.85;15.70;;;17.60;99.90;;;;;;5033086;28;20021;-53
2022/06/29 04:40:04;;;;;;;24.13;17.60;;;17.70;99.90;;;;;;5032535;28;20392;-57
2022/06/29 04:42:29;;;;;;;21.58;16.77;;;17.70;99.90;;;;;;5032914;28;20128;-52
2022/06/29 04:44:55;;;;;;;25.58;17.70;;;17.70;99.90;;;;;;5032881;28;20120;-52
2022/06/29 04:47:21;;;;;;;25.38;17.75;;;17.60;99.90;;;;;;5032658;28;20461;-57
2022/06/29 04:49:47;;;;;;;19.88;16.38;;;17.70;99.90;;;;;;5032798;28;20049;-56
2022/06/29 04:52:12;;;;;;;21.45;15.43;;;17.70;99.90;;;;;;5032778;28;20387;-56
2022/06/29 04:54:39;;;;;;;20.23;15.15;;;17.70;99.90;;;;;;5032464;28;20045;-53
2022/06/29 04:57:06;;;;;;;22.23;16.10;;;17.70;99.90;;;;;;5032514;28;20496;-52
2022/06/29 04:59:33;;;;;;;20.50;14.25;;;17.70;99.90;;;;;;5014248;28;20037;-54
2022/06/29 05:01:59;;;;;;;25.50;16.90;;;17.70;99.90;;;;;;5014945;28;20022;-54
2022/06/29 05:04:24;;;;;;;20.55;16.20;;;17.70;99.90;;;;;;5032470;28;20037;-54
2022/06/29 05:06:50;;;;;;;31.75;18.13;;;17.70;99.90;;;;;;5032706;28;20795;-52
2022/06/29 05:09:16;;;;;;;27.85;17.23;;;17.70;99.90;;;;;;5032235;28;20021;-51
2022/06/29 05:11:42;;;;;;;41.90;20.40;;;17.70;99.90;;;;;;5032385;28;20025;-55
2022/06/29 05:14:10;;;;;;;25.50;17.35;;;17.70;99.90;;;;;;5032229;28;20557;-52
2022/06/29 05:16:36;;;;;;;25.08;18.52;;;17.70;99.90;;;;;;5032048;28;20064;-56
2022/06/29 05:19:02;;;;;;;25.00;18.83;;;17.70;99.90;;;;;;5032138;28;20060;-54
2022/06/29 05:21:28;;;;;;;29.88;19.52;;;17.70;99.90;;;;;;5032041;28;20116;-52
2022/06/29 05:23:53;;;;;;;30.48;20.17;;;17.70;99.90;;;;;;5014703;28;20700;-51
2022/06/29 05:26:19;;;;;;;86.00;30.13;;;17.70;99.90;;;;;;5031456;28;20028;-54
2022/06/29 05:28:45;;;;;;;38.17;30.20;;;17.70;99.90;;;;;;5032374;28;20025;-56
2022/06/29 05:31:11;;;;;;;85.45;44.42;;;17.70;99.90;;;;;;5032353;28;20385;-54
2022/06/29 05:33:36;;;;;;;80.65;34.17;;;17.70;99.90;;;;;;5031953;28;20668;-55
2022/06/29 05:36:08;;;;;;;36.63;25.38;;;17.70;99.90;;;;;;5030789;28;20029;-55
2022/06/29 05:38:34;;;;;;;50.33;26.45;;;17.70;99.90;;;;;;5014277;28;20057;-53
2022/06/29 05:41:00;;;;;;;48.30;34.63;;;17.70;99.90;;;;;;5031646;28;20056;-53
2022/06/29 05:43:49;;;;;;;27.27;20.10;;;17.80;99.90;;;;;;5031812;28;20018;-52
2022/06/29 05:46:15;;;;;;;27.13;19.67;;;17.80;99.90;;;;;;5012183;28;20068;-53
2022/06/29 05:48:41;;;;;;;33.10;20.30;;;17.80;99.90;;;;;;4995641;28;20051;-56
2022/06/29 05:51:06;;;;;;;28.98;20.70;;;17.90;99.90;;;;;;5031212;28;20037;-52
2022/06/29 05:53:32;;;;;;;35.50;20.02;;;18.00;99.90;;;;;;5031473;28;20071;-55
2022/06/29 05:55:58;;;;;;;25.63;17.27;;;18.10;99.90;;;;;;5031117;28;20052;-53
2022/06/29 05:58:24;;;;;;;31.48;16.60;;;18.10;99.90;;;;;;5031405;28;20030;-53
2022/06/29 06:00:50;;;;;;;19.58;14.57;;;18.10;99.90;;;;;;5031472;28;20037;-57
2022/06/29 06:03:17;;;;;;;27.90;14.38;;;18.00;99.90;;;;;;5031296;28;20485;-56
2022/06/29 06:05:43;;;;;;;26.80;15.25;;;18.00;99.90;;;;;;5030649;28;20683;-55
2022/06/29 06:08:09;;;;;;;25.27;17.27;;;18.00;99.90;;;;;;5031637;28;20032;-54
2022/06/29 06:10:34;;;;;;;28.63;18.00;;;18.00;99.90;;;;;;5030938;28;20021;-55
2022/06/29 06:13:02;;;;;;;27.00;18.50;;;18.10;99.90;;;;;;5031568;28;20116;-53
2022/06/29 06:15:27;;;;;;;23.83;17.02;;;18.00;99.90;;;;;;5030921;28;20144;-54
2022/06/29 06:17:53;;;;;;;25.17;17.80;;;18.00;99.90;;;;;;5030955;28;20117;-57
2022/06/29 06:20:19;;;;;;;38.22;20.33;;;18.00;99.90;;;;;;5030443;28;20083;-62
2022/06/29 06:22:45;;;;;;;24.17;18.02;;;18.00;99.90;;;;;;5031049;28;20025;-53
2022/06/29 06:25:10;;;;;;;20.67;15.98;;;18.00;99.90;;;;;;5030838;28;20036;-56
2022/06/29 06:27:36;;;;;;;20.73;15.98;;;18.10;99.90;;;;;;5030698;28;20026;-52
2022/06/29 06:30:02;;;;;;;23.42;15.57;;;18.20;99.90;;;;;;5014362;28;20053;-52
2022/06/29 06:32:28;;;;;;;23.52;16.85;;;18.20;99.90;;;;;;5030515;28;20083;-54
2022/06/29 06:34:54;;;;;;;24.02;18.30;;;18.20;99.90;;;;;;5030890;28;20412;-55
2022/06/29 06:37:19;;;;;;;26.30;19.08;;;18.10;99.90;;;;;;5030246;28;20129;-55
2022/06/29 06:41:21;;;;;;;30.45;19.88;;;18.00;99.90;;;;;;5030471;28;20037;-50
2022/06/29 06:42:30;;;;;;;25.75;18.83;;;17.90;99.90;;;;;;5030205;28;20080;-52
2022/06/29 06:44:56;;;;;;;27.55;19.42;;;18.00;99.90;;;;;;5027748;28;20140;-55
2022/06/29 06:47:22;;;;;;;22.70;17.40;;;17.90;99.90;;;;;;4999007;28;20069;-55
2022/06/29 06:49:47;;;;;;;26.23;18.80;;;18.00;99.90;;;;;;5015948;28;20040;-52
2022/06/29 06:52:16;;;;;;;25.20;19.15;;;18.00;99.90;;;;;;5001004;28;20026;-52
2022/06/29 06:54:43;;;;;;;26.60;15.60;;;18.00;99.90;;;;;;5011901;28;20025;-53
2022/06/29 06:57:08;;;;;;;26.73;17.35;;;18.10;99.90;;;;;;5018264;28;20018;-55
2022/06/29 06:59:34;;;;;;;26.50;18.48;;;18.10;99.90;;;;;;5015093;28;20018;-53
2022/06/29 07:02:00;;;;;;;32.00;18.48;;;18.00;99.90;;;;;;4997458;28;20101;-54
2022/06/29 07:04:26;;;;;;;24.35;18.02;;;18.10;99.90;;;;;;4999453;28;20117;-52
2022/06/29 07:06:52;;;;;;;23.48;17.23;;;18.10;99.90;;;;;;5015158;28;20726;-54
2022/06/29 07:09:17;;;;;;;24.50;16.52;;;18.10;99.90;;;;;;5014949;28;20018;-55
2022/06/29 07:11:44;;;;;;;23.88;17.00;;;18.20;99.90;;;;;;5015068;28;20342;-53
2022/06/29 07:14:09;;;;;;;34.45;17.00;;;18.20;99.90;;;;;;5014618;28;20081;-53
2022/06/29 07:16:35;;;;;;;23.92;16.67;;;18.20;99.90;;;;;;5018866;28;20489;-55
2022/06/29 07:19:01;;;;;;;22.55;16.30;;;18.20;99.90;;;;;;5014938;28;20022;-51
2022/06/29 07:21:27;;;;;;;25.52;15.80;;;18.30;99.90;;;;;;5014401;28;20057;-54
2022/06/29 07:23:52;;;;;;;25.67;16.17;;;18.20;99.90;;;;;;5035421;28;20025;-56
2022/06/29 07:26:18;;;;;;;21.52;15.48;;;18.30;99.90;;;;;;5034756;28;20036;-53
2022/06/29 07:28:44;;;;;;;22.05;14.38;;;18.40;99.90;;;;;;5035947;28;20081;-55
2022/06/29 07:31:09;;;;;;;24.38;15.07;;;18.40;99.90;;;;;;5033262;28;20100;-55
2022/06/29 07:33:35;;;;;;;28.58;15.98;;;18.40;99.90;;;;;;5033050;28;20101;-51
2022/06/29 07:36:01;;;;;;;24.88;13.15;;;18.50;99.90;;;;;;5032785;28;20021;-55
2022/06/29 07:38:27;;;;;;;19.40;12.25;;;18.40;99.90;;;;;;5033286;28;20025;-53
2022/06/29 07:40:52;;;;;;;18.50;13.43;;;18.30;99.90;;;;;;5018709;28;20030;-53
2022/06/29 07:43:18;;;;;;;21.02;13.80;;;18.30;99.90;;;;;;5014623;28;20021;-53
2022/06/29 07:45:44;;;;;;;18.50;14.15;;;18.30;99.90;;;;;;5014433;28;20021;-55
2022/06/29 07:48:10;;;;;;;19.30;15.27;;;18.30;99.90;;;;;;5014447;28;20037;-52
2022/06/29 07:50:36;;;;;;;21.23;15.20;;;18.30;99.90;;;;;;5013857;28;20469;-54
2022/06/29 07:53:01;;;;;;;22.77;15.55;;;18.30;99.90;;;;;;5000070;28;20492;-53
2022/06/29 07:55:27;;;;;;;22.42;15.18;;;18.20;99.90;;;;;;5045349;28;20025;-55
2022/06/29 07:57:53;;;;;;;19.02;16.10;;;18.20;99.90;;;;;;5033728;28;20030;-56
2022/06/29 08:00:19;;;;;;;26.17;15.95;;;18.20;99.90;;;;;;5042885;28;20017;-54
2022/06/29 08:02:45;;;;;;;20.13;15.13;;;18.20;99.90;;;;;;5051088;28;20091;-56
2022/06/29 08:05:11;;;;;;;25.02;13.32;;;18.30;99.90;;;;;;5050816;28;20531;-56
2022/06/29 08:07:37;;;;;;;25.23;15.10;;;18.30;99.90;;;;;;5052079;28;20385;-57
2022/06/29 08:10:04;;;;;;;22.70;13.23;;;18.30;99.90;;;;;;5052279;28;20760;-53
2022/06/29 08:12:35;;;;;;;17.67;13.70;;;18.40;99.90;;;;;;5045483;28;20014;-55
2022/06/29 08:15:00;;;;;;;17.85;13.90;;;18.50;99.90;;;;;;5028545;28;20285;-53
2022/06/29 08:17:26;;;;;;;20.70;13.68;;;18.60;99.90;;;;;;5026156;28;20027;-57
2022/06/29 08:19:53;;;;;;;16.17;12.93;;;18.60;99.90;;;;;;5027541;28;20036;-53
2022/06/29 08:22:20;;;;;;;15.90;10.80;;;18.50;99.90;;;;;;5031602;28;20021;-52
2022/06/29 08:24:45;;;;;;;14.45;10.85;;;18.60;99.90;;;;;;5032173;28;20018;-53
2022/06/29 08:27:11;;;;;;;13.07;9.73;;;18.50;99.90;;;;;;5032506;28;20018;-53
2022/06/29 08:29:37;;;;;;;16.10;9.48;;;18.50;99.90;;;;;;5015674;28;20025;-54
2022/06/29 08:32:03;;;;;;;15.77;10.38;;;18.50;99.90;;;;;;5031482;28;20033;-53
2022/06/29 08:34:36;;;;;;;20.00;9.25;;;18.50;99.90;;;;;;5030820;28;20038;-53
2022/06/29 08:37:01;;;;;;;19.27;9.70;;;18.40;99.90;;;;;;5013458;28;20106;-56
2022/06/29 08:39:27;;;;;;;14.45;9.45;;;18.40;99.90;;;;;;5032773;28;20468;-55
2022/06/29 08:41:57;;;;;;;21.25;10.05;;;18.40;99.90;;;;;;5031661;28;20108;-53
2022/06/29 08:44:23;;;;;;;16.08;10.32;;;18.40;99.90;;;;;;5031967;28;20341;-57
2022/06/29 08:46:48;;;;;;;19.88;10.13;;;18.30;99.90;;;;;;5032495;28;20017;-54
2022/06/29 08:49:14;;;;;;;12.50;7.82;;;18.40;99.90;;;;;;5031991;28;20025;-54
2022/06/29 08:51:42;;;;;;;15.80;8.95;;;18.40;99.90;;;;;;5031354;28;20026;-53
2022/06/29 08:54:08;;;;;;;18.83;8.20;;;18.30;99.90;;;;;;5031911;28;20028;-54
2022/06/29 08:56:35;;;;;;;19.80;9.52;;;18.30;99.90;;;;;;5010821;28;20124;-55
2022/06/29 08:59:03;;;;;;;20.42;9.63;;;18.30;99.90;;;;;;5025836;28;20034;-55
2022/06/29 09:01:29;;;;;;;14.63;8.73;;;18.40;99.90;;;;;;5027324;28;20111;-55
2022/06/29 09:03:56;;;;;;;12.07;8.63;;;18.50;99.90;;;;;;5017333;28;20549;-56
2022/06/29 09:06:22;;;;;;;12.68;8.68;;;18.50;99.90;;;;;;5015598;28;20488;-54
2022/06/29 09:08:50;;;;;;;21.08;9.82;;;18.70;99.90;;;;;;5013304;28;20026;-53
2022/06/29 09:11:28;;;;;;;19.25;8.77;;;18.60;99.90;;;;;;5015869;28;20034;-56
2022/06/29 09:14:16;;;;;;;15.63;9.23;;;18.70;99.90;;;;;;5013904;28;20042;-54
2022/06/29 09:17:03;;;;;;;10.90;8.38;;;18.70;99.90;;;;;;5012937;28;20026;-54
2022/06/29 09:19:50;;;;;;;14.15;8.48;;;18.80;99.90;;;;;;5033493;28;20431;-54
2022/06/29 09:22:16;;;;;;;20.08;9.25;;;18.90;99.90;;;;;;5005804;28;20022;-53
2022/06/29 09:24:41;;;;;;;22.10;9.05;;;18.80;99.90;;;;;;5035383;28;20022;-51
2022/06/29 09:27:11;;;;;;;14.02;8.50;;;18.90;99.90;;;;;;5034810;28;20025;-54
2022/06/29 09:29:41;;;;;;;13.75;8.65;;;19.10;99.90;;;;;;5031311;28;20079;-56
2022/06/29 09:32:17;;;;;;;18.85;8.75;;;19.20;99.90;;;;;;5013718;28;20676;-53
2022/06/29 09:34:43;;;;;;;12.88;8.48;;;19.30;99.90;;;;;;5025498;28;20041;-54
2022/06/29 09:37:18;;;;;;;15.23;8.02;;;19.40;99.90;;;;;;5032078;28;20056;-53
2022/06/29 09:39:46;;;;;;;18.35;8.45;;;19.40;99.90;;;;;;5010800;28;20553;-57
2022/06/29 09:42:19;;;;;;;16.23;8.88;;;19.40;99.90;;;;;;5029940;28;20104;-52
2022/06/29 09:44:45;;;;;;;10.38;6.57;;;19.40;99.90;;;;;;5031710;28;20086;-59
2022/06/29 09:47:15;;;;;;;9.35;7.13;;;19.20;99.90;;;;;;5031343;28;20446;-54
2022/06/29 09:49:46;;;;;;;20.35;8.20;;;19.30;99.90;;;;;;5014023;28;20033;-64
2022/06/29 09:52:13;;;;;;;10.77;7.97;;;19.30;99.90;;;;;;5031856;28;20104;-55
2022/06/29 09:54:54;;;;;;;19.85;9.38;;;19.30;99.90;;;;;;5031030;28;20040;-53
2022/06/29 09:57:22;;;;;;;12.55;7.47;;;19.60;99.90;;;;;;5031396;28;20026;-53
2022/06/29 10:02:43;;;;;;;23.48;8.15;;;20.00;99.90;;;;;;5031422;28;20036;-55
2022/06/29 10:05:17;;;;;;;13.85;7.88;;;20.50;99.90;;;;;;5013106;28;20121;-56
2022/06/29 10:07:46;;;;;;;13.25;7.40;;;20.80;99.90;;;;;;4986603;28;20029;-56
2022/06/29 10:10:14;;;;;;;12.30;7.18;;;21.10;99.90;;;;;;5032637;28;20028;-50
2022/06/29 10:16:02;;;;;;;18.13;7.00;;;21.00;99.90;;;;;;5043779;22;20122;-56
2022/06/29 10:18:58;;;;;;;16.17;7.65;;;21.00;99.90;;;;;;5046587;28;20112;-53
2022/06/29 10:21:28;;;;;;;10.90;6.72;;;21.10;99.90;;;;;;5047329;28;20040;-56
2022/06/29 10:23:54;;;;;;;8.15;5.95;;;21.10;99.90;;;;;;5043277;28;20030;-55
2022/06/29 10:26:30;;;;;;;18.80;8.63;;;21.10;99.90;;;;;;5030943;28;20350;-52
2022/06/29 10:29:08;;;;;;;11.70;6.55;;;21.10;99.90;;;;;;5048434;28;20400;-54
2022/06/29 10:31:53;;;;;;;16.88;8.13;;;21.10;99.90;;;;;;5050775;28;20144;-57
2022/06/29 10:34:31;;;;;;;11.40;6.63;;;21.20;99.90;;;;;;5050929;28;20060;-52
2022/06/29 10:37:03;;;;;;;12.45;6.97;;;21.40;99.90;;;;;;5060293;28;20032;-54
2022/06/29 10:39:44;;;;;;;15.25;8.05;;;21.30;99.90;;;;;;5047101;28;20072;-51
2022/06/29 10:45:16;;;;;;;16.20;8.75;;;21.20;99.90;;;;;;5048890;28;20094;-52
2022/06/29 10:47:47;;;;;;;18.40;9.60;;;21.40;99.90;;;;;;5048807;28;20063;-52
2022/06/29 10:52:42;;;;;;;17.90;8.88;;;21.70;99.90;;;;;;5049536;28;20029;-54
2022/06/29 10:55:09;;;;;;;14.07;8.02;;;21.60;99.90;;;;;;5040862;28;20025;-53
2022/06/29 10:57:36;;;;;;;19.80;9.48;;;21.70;99.90;;;;;;5030845;28;20053;-50
2022/06/29 11:00:10;;;;;;;15.80;9.98;;;21.70;99.90;;;;;;5029463;28;20009;-53
2022/06/29 11:02:37;;;;;;;14.05;10.25;;;21.80;99.90;;;;;;5027202;28;20477;-53
2022/06/29 11:05:03;;;;;;;16.92;9.05;;;21.90;99.90;;;;;;5027585;28;20048;-54
2022/06/29 11:12:58;;;;;;;15.65;9.70;;;21.70;99.90;;;;;;5046662;28;20562;-56
2022/06/29 11:15:39;;;;;;;11.35;9.25;;;21.80;99.90;;;;;;5045580;28;20091;-55
2022/06/29 11:18:06;;;;;;;14.43;9.13;;;21.70;99.90;;;;;;5009937;28;20080;-54
2022/06/29 11:20:32;;;;;;;13.98;9.98;;;21.50;99.90;;;;;;5027419;28;20025;-54
2022/06/29 11:22:58;;;;;;;16.73;9.93;;;21.50;99.90;;;;;;5027445;28;20120;-55
2022/06/29 11:25:25;;;;;;;14.27;9.50;;;21.60;99.90;;;;;;5027392;28;20524;-52
2022/06/29 11:27:51;;;;;;;14.27;8.98;;;21.80;99.90;;;;;;5028560;28;20033;-55
2022/06/29 11:30:22;;;;;;;13.55;8.20;;;21.80;99.90;;;;;;5028215;28;20030;-54
2022/06/29 11:32:49;;;;;;;13.73;8.55;;;22.10;99.90;;;;;;5029400;28;20017;-54
2022/06/29 11:35:23;;;;;;;17.08;7.95;;;22.60;99.90;;;;;;5013893;28;20053;-53
2022/06/29 11:37:51;;;;;;;;;;;22.90;99.90;;;;;;5032270;28;20025;-53
2022/06/29 11:40:35;;;;;;;15.00;6.47;;;22.80;99.90;;;;;;5031666;28;19988;-55
2022/06/29 11:43:08;;;;;;;12.63;6.07;;;23.30;99.90;;;;;;5046254;28;20031;-56
2022/06/29 11:45:45;;;;;;;9.77;5.53;;;23.70;99.90;;;;;;5050826;28;20103;-55
2022/06/29 11:48:28;;;;;;;10.88;5.68;;;23.90;99.90;;;;;;5050784;28;20025;-56
2022/06/29 11:50:59;;;;;;;7.28;3.97;;;24.30;99.90;;;;;;5041836;28;20033;-52
2022/06/29 11:53:47;;;;;;;7.40;3.90;;;24.40;99.90;;;;;;5049019;28;20025;-53
2022/06/29 11:56:16;;;;;;;12.93;4.22;;;24.70;99.90;;;;;;5048037;28;20116;-53
2022/06/29 11:58:53;;;;;;;6.97;3.53;;;24.70;99.90;;;;;;5049465;28;20515;-56
2022/06/29 12:01:21;;;;;;;15.98;3.60;;;25.00;99.90;;;;;;5048851;28;20037;-55
2022/06/29 12:03:52;;;;;;;6.25;3.15;;;24.80;99.90;;;;;;5052617;28;20462;-55
2022/06/29 12:06:19;;;;;;;8.30;2.97;;;25.10;99.90;;;;;;5052523;28;20108;-56
2022/06/29 12:08:47;;;;;;;10.10;2.60;;;25.10;99.90;;;;;;5052898;28;20029;-50
2022/06/29 12:11:13;;;;;;;8.00;3.67;;;24.80;99.90;;;;;;5051950;28;20025;-54
2022/06/29 12:13:39;;;;;;;11.55;3.10;;;24.70;99.90;;;;;;5052892;28;20032;-54
2022/06/29 12:16:05;;;;;;;4.75;3.38;;;24.50;99.90;;;;;;5052302;28;20056;-54
2022/06/29 12:18:31;;;;;;;8.68;4.25;;;24.20;99.90;;;;;;5052176;28;20040;-55
2022/06/29 12:20:57;;;;;;;6.65;3.38;;;23.70;99.90;;;;;;5052283;28;20036;-54
2022/06/29 12:23:23;;;;;;;8.35;3.95;;;23.50;99.90;;;;;;5052370;28;20017;-53
2022/06/29 12:25:49;;;;;;;7.90;3.92;;;23.60;99.90;;;;;;5052386;28;20372;-54
2022/06/29 12:28:15;;;;;;;6.38;3.55;;;23.30;99.90;;;;;;5052234;28;20024;-54
2022/06/29 12:30:42;;;;;;;6.88;3.10;;;23.40;99.90;;;;;;5034679;28;20037;-57
2022/06/29 12:33:09;;;;;;;8.00;3.78;;;23.80;99.90;;;;;;5052278;28;20048;-56
2022/06/29 12:35:35;;;;;;;6.90;4.20;;;23.90;99.90;;;;;;5017741;28;20396;-54
2022/06/29 12:38:01;;;;;;;8.90;3.70;;;23.60;99.90;;;;;;5053066;28;20376;-54
2022/06/29 12:40:29;;;;;;;10.48;4.50;;;23.80;99.90;;;;;;5052732;28;20013;-52
2022/06/29 12:42:55;;;;;;;7.00;3.83;;;23.90;99.90;;;;;;5053074;28;20025;-53
2022/06/29 12:45:21;;;;;;;10.07;4.63;;;23.90;99.90;;;;;;5052272;28;20014;-52
2022/06/29 12:47:47;;;;;;;7.55;4.22;;;24.40;99.90;;;;;;5053287;28;20017;-52
2022/06/29 12:50:13;;;;;;;8.45;3.90;;;24.70;99.90;;;;;;5052851;28;20428;-56
2022/06/29 12:52:46;;;;;;;27.90;4.68;;;24.90;99.90;;;;;;5052153;28;20044;-55